M I D A S
Marine Information and Data Acquisition System
Tripno 1320 of the Zeeleeuw from 2007-08-08 08:30:00 to 2007-08-08 14:00:00
Back to CruiseResearch ActivitiesStationsMapUnderway DataData graphs

EquipmentUnitsComment
TimeDGPSUTC
LatitudeDGPSDM.mWGS84
LongitudeDGPSDM.mWGS84
HeadingGyrodeg 
SOGDGPSknotsSpeed over ground
COGDGPSdegCourse over ground
DepthEcho soundermeters200 kHz
Missing or incorrect values are displayed as -999
Navigation data collected by the RV Zeeleeuw from 2007-08-08 08:30:00 to 2007-08-08 14:00:00
Time Latitude Longitude Heading SOG COG Depth
2007-08-08 08:31:06 51°13.602 2°56.1 129.4 0.1 88 9.5
2007-08-08 08:32:31 51°13.601 2°56.099 113.2 0.3 275 9.6
2007-08-08 08:33:31 51°13.613 2°56.052 114.4 3.5 291 -999
2007-08-08 08:34:31 51°13.642 2°55.95 125.3 4.6 301 -999
2007-08-08 08:35:31 51°13.694 2°55.839 132.3 5.8 309 -999
2007-08-08 08:36:31 51°13.761 2°55.714 138.7 6.4 315 -999
2007-08-08 08:37:31 51°13.848 2°55.627 170 5.9 345 -999
2007-08-08 08:38:32 51°13.926 2°55.641 214.3 3.6 26 -999
2007-08-08 08:39:31 51°13.949 2°55.661 251.8 1.7 265 12.8
2007-08-08 08:40:31 51°13.976 2°55.592 321.1 5.2 317 12.7
2007-08-08 08:41:31 51°14.069 2°55.483 330.8 7.8 327 12.9
2007-08-08 08:42:31 51°14.183 2°55.366 329.9 8.3 325 12.7
2007-08-08 08:43:31 51°14.284 2°55.211 316.4 8.5 310 12.7
2007-08-08 08:44:31 51°14.372 2°55.034 315.2 8.8 309 12.4
2007-08-08 08:45:31 51°14.472 2°54.849 315.6 9.4 310 12.7
2007-08-08 08:46:31 51°14.568 2°54.667 315 9 310 12.4
2007-08-08 08:47:31 51°14.654 2°54.471 305.5 9.3 300 11.4
2007-08-08 08:48:31 51°14.723 2°54.227 294.3 10.4 293 12.2
2007-08-08 08:49:31 51°14.8 2°53.952 296.5 12.1 294 11.6
2007-08-08 08:50:31 51°14.884 2°53.657 297.8 12.3 295 11.4
2007-08-08 08:51:31 51°14.972 2°53.359 297.5 12.4 296 11.6
2007-08-08 08:52:31 51°15.047 2°53.056 294 12.2 291 11.7
2007-08-08 08:53:31 51°15.121 2°52.751 293.7 12.4 290 12.3
2007-08-08 08:54:31 51°15.195 2°52.447 293 12.1 292 12.3
2007-08-08 08:55:31 51°15.267 2°52.144 292.3 12.2 284 13
2007-08-08 08:56:31 51°15.303 2°51.824 281.6 12.3 280 13.6
2007-08-08 08:57:31 51°15.339 2°51.505 282.3 12.3 282 14
2007-08-08 08:58:31 51°15.375 2°51.186 283 12.4 279 14.4
2007-08-08 08:59:31 51°15.411 2°50.868 283 12.2 280 14.1
2007-08-08 09:00:31 51°15.45 2°50.549 283 12.3 281 14.5
2007-08-08 09:01:31 51°15.489 2°50.23 282.6 12.3 283 14.9
2007-08-08 09:02:31 51°15.53 2°49.909 284.3 12.3 281 14.5
2007-08-08 09:03:31 51°15.571 2°49.588 283.2 12.3 283 14.8
2007-08-08 09:04:31 51°15.608 2°49.268 284 12.2 282 13.5
2007-08-08 09:05:31 51°15.648 2°48.951 283.7 12.1 281 12.2
2007-08-08 09:06:31 51°15.687 2°48.632 283.5 12.3 280 12.6
2007-08-08 09:07:31 51°15.729 2°48.309 284.2 12.4 279 13.2
2007-08-08 09:08:31 51°15.78 2°47.991 286.9 12.3 287 14.9
2007-08-08 09:09:31 51°15.835 2°47.681 291.4 12 288 16.6
2007-08-08 09:10:31 51°15.867 2°47.364 279.2 12.2 277 17.7
2007-08-08 09:11:31 51°15.892 2°47.047 280 12.1 275 18.1
2007-08-08 09:12:31 51°15.924 2°46.729 281.5 12.1 280 18.2
2007-08-08 09:13:31 51°15.99 2°46.427 292.6 12.1 294 16.3
2007-08-08 09:14:31 51°16.072 2°46.134 295.3 12.2 295 13
2007-08-08 09:15:31 51°16.154 2°45.839 293.6 12.3 293 12.8
2007-08-08 09:16:31 51°16.248 2°45.548 300.7 12.5 300 12
2007-08-08 09:17:31 51°16.352 2°45.26 301.8 12.6 299 12.6
2007-08-08 09:18:31 51°16.462 2°44.975 304.4 12.6 301 12.9
2007-08-08 09:19:31 51°16.576 2°44.698 304.7 12.6 305 12.7
2007-08-08 09:20:31 51°16.696 2°44.424 307 12.4 304 15.6
2007-08-08 09:21:31 51°16.818 2°44.152 306.3 12.6 305 16.4
2007-08-08 09:22:31 51°16.938 2°43.88 306.9 12.5 305 16.8
2007-08-08 09:23:31 51°17.057 2°43.61 307.1 12.3 304 15.9
2007-08-08 09:24:31 51°17.179 2°43.347 308.6 12.3 305 15.1
2007-08-08 09:25:31 51°17.3 2°43.084 307.6 12.3 307 13
2007-08-08 09:26:31 51°17.422 2°42.825 306.2 12.2 307 13.1
2007-08-08 09:27:31 51°17.545 2°42.561 307.4 12.4 307 22.7
2007-08-08 09:28:31 51°17.67 2°42.294 307.5 12.6 307 24.7
2007-08-08 09:29:31 51°17.797 2°42.027 307.3 12.6 308 25
2007-08-08 09:30:31 51°17.927 2°41.762 308.1 12.8 307 25.4
2007-08-08 09:31:31 51°18.054 2°41.492 306.7 12.7 306 24
2007-08-08 09:32:31 51°18.18 2°41.224 307.4 12.4 305 19.7
2007-08-08 09:33:31 51°18.306 2°40.962 307.4 12.3 308 16.5
2007-08-08 09:34:31 51°18.428 2°40.703 306.4 12.5 307 20.3
2007-08-08 09:35:31 51°18.555 2°40.444 306.8 12.2 309 14.6
2007-08-08 09:36:31 51°18.678 2°40.183 307 12.4 306 24.4
2007-08-08 09:37:31 51°18.802 2°39.921 307.7 12.5 306 25
2007-08-08 09:38:31 51°18.929 2°39.655 307 12.6 306 25.2
2007-08-08 09:39:31 51°19.056 2°39.389 306.5 12.6 306 27.1
2007-08-08 09:40:31 51°19.181 2°39.121 306.2 12.4 306 29.1
2007-08-08 09:41:31 51°19.307 2°38.851 308 12.7 307 29
2007-08-08 09:42:31 51°19.435 2°38.58 307.1 12.8 309 26.9
2007-08-08 09:43:31 51°19.56 2°38.307 307 12.7 306 24.6
2007-08-08 09:44:31 51°19.684 2°38.036 307.6 12.5 306 23.6
2007-08-08 09:45:31 51°19.808 2°37.767 306.6 12.6 309 23.3
2007-08-08 09:46:31 51°19.915 2°37.521 302.6 7.8 299 23.5
2007-08-08 09:47:31 51°19.95 2°37.403 294.7 3.3 291 23.2
2007-08-08 09:48:32 51°19.964 2°37.346 296.4 1.7 291 23.3
2007-08-08 09:49:32 51°19.98 2°37.283 296.6 3.4 295 22.5
2007-08-08 09:50:32 51°20.003 2°37.182 290 4.4 290 23.3
2007-08-08 09:51:32 51°20.035 2°37.086 302.6 3.3 304 20.3
2007-08-08 09:52:32 51°20.059 2°37.029 297.6 2.1 297 23.1
2007-08-08 09:53:32 51°20.068 2°36.983 288.1 1.7 282 23.3
2007-08-08 09:54:32 51°20.078 2°36.943 293.9 1.5 290 25.6
2007-08-08 09:55:32 51°20.086 2°36.907 291.7 1.5 296 24.4
2007-08-08 09:56:32 51°20.096 2°36.879 307.4 1 289 21.8
2007-08-08 09:57:32 51°20.105 2°36.85 290.3 1.2 292 22.5
2007-08-08 09:58:32 51°20.109 2°36.827 293 0.6 268 22.1
2007-08-08 09:59:32 51°20.1 2°36.857 282.8 2.9 106 -999
2007-08-08 10:00:32 51°20.096 2°36.918 262.4 1.7 89 -999
2007-08-08 10:01:32 51°20.095 2°36.952 251.6 0.9 94 5.1
2007-08-08 10:02:32 51°20.094 2°36.971 247.9 0.6 115 23.4
2007-08-08 10:03:32 51°20.089 2°36.979 250.4 0.4 145 22.8
2007-08-08 10:04:32 51°20.086 2°36.98 265.2 0.2 182 23
2007-08-08 10:05:32 51°20.083 2°36.978 277.9 0.2 224 23.4
2007-08-08 10:06:32 51°20.081 2°36.97 283.5 0.6 275 23.6
2007-08-08 10:07:32 51°20.083 2°36.948 286.7 1.1 286 24.9
2007-08-08 10:08:32 51°20.086 2°36.921 289.8 0.9 280 24.6
2007-08-08 10:09:32 51°20.09 2°36.897 286.1 0.8 286 20.2
2007-08-08 10:10:32 51°20.092 2°36.881 292.4 0.4 260 22.3
2007-08-08 10:11:32 51°20.093 2°36.871 299.2 0.3 256 21.8
2007-08-08 10:12:32 51°20.091 2°36.868 295.1 0.2 216 23
2007-08-08 10:13:32 51°20.085 2°36.867 285.5 0.5 179 24
2007-08-08 10:14:32 51°20.081 2°36.867 280.1 0.2 184 23.3
2007-08-08 10:15:32 51°20.076 2°36.869 278.7 0.5 162 23
2007-08-08 10:16:32 51°20.07 2°36.873 274.3 0.3 177 23.4
2007-08-08 10:17:32 51°20.064 2°36.877 274.1 0.4 154 23.8
2007-08-08 10:18:32 51°20.058 2°36.883 273.5 0.5 164 24
2007-08-08 10:19:32 51°20.05 2°36.89 270.6 0.6 149 23.8
2007-08-08 10:20:32 51°20.042 2°36.895 267.3 0.5 151 24
2007-08-08 10:21:32 51°20.035 2°36.899 267.5 0.4 169 23.7
2007-08-08 10:22:32 51°20.028 2°36.903 268.1 0.5 156 23.1
2007-08-08 10:23:32 51°20.02 2°36.906 264.9 0.5 173 22.6
2007-08-08 10:24:32 51°20.012 2°36.907 268.4 0.3 190 23.2
2007-08-08 10:25:32 51°20.005 2°36.908 274.1 0.5 175 22.3
2007-08-08 10:26:32 51°20 2°36.906 282.5 0.3 197 22.3
2007-08-08 10:27:32 51°19.994 2°36.906 283 0.4 184 22.3
2007-08-08 10:28:32 51°19.988 2°36.906 283.1 0.3 169 22.4
2007-08-08 10:29:32 51°19.981 2°36.909 279.1 0.5 162 21.8
2007-08-08 10:30:32 51°19.974 2°36.913 274.4 0.5 153 22.4
2007-08-08 10:31:32 51°19.967 2°36.917 270.1 0.4 168 21.9
2007-08-08 10:32:32 51°19.96 2°36.92 268.9 0.4 157 21.9
2007-08-08 10:33:32 51°19.954 2°36.923 268.8 0.3 181 22.3
2007-08-08 10:34:32 51°19.948 2°36.924 269.4 0.4 186 21.9
2007-08-08 10:35:32 51°19.942 2°36.924 274.7 0.4 181 22
2007-08-08 10:36:32 51°19.936 2°36.923 278.6 0.3 198 22
2007-08-08 10:37:32 51°19.93 2°36.921 283 0.3 201 22.3
2007-08-08 10:38:32 51°19.925 2°36.92 285.2 0.4 178 21.7
2007-08-08 10:39:32 51°19.917 2°36.92 285.1 0.5 177 22.1
2007-08-08 10:40:32 51°19.909 2°36.923 280.8 0.6 167 21.6
2007-08-08 10:41:32 51°19.902 2°36.926 275.5 0.5 162 21.2
2007-08-08 10:42:32 51°19.895 2°36.921 276.4 0.7 252 20.2
2007-08-08 10:43:32 51°19.909 2°36.878 319.6 2.9 319 21.2
2007-08-08 10:44:32 51°19.975 2°36.848 357.9 4.9 352 22
2007-08-08 10:45:32 51°20.037 2°36.842 13.7 2.5 12 22.5
2007-08-08 10:46:32 51°20.05 2°36.844 43.5 0.3 218 22.8
2007-08-08 10:47:32 51°20.044 2°36.841 77.9 0.5 185 -999
2007-08-08 10:48:32 51°20.038 2°36.835 94.8 0.5 218 22.6
2007-08-08 10:49:32 51°20.031 2°36.825 109.4 0.6 224 22.3
2007-08-08 10:50:32 51°20.025 2°36.813 122.1 0.7 236 21.8
2007-08-08 10:51:32 51°20.019 2°36.802 132.8 0.6 222 21.4
2007-08-08 10:52:32 51°20.007 2°36.801 143.2 1.8 155 20.6
2007-08-08 10:53:32 51°19.958 2°36.797 206.5 3.2 214 22
2007-08-08 10:54:32 51°19.944 2°36.781 251.1 0.3 195 21.6
2007-08-08 10:55:32 51°19.938 2°36.775 265.4 0.4 207 20.6
2007-08-08 10:56:32 51°19.932 2°36.769 277.2 0.4 209 20.7
2007-08-08 10:57:32 51°19.927 2°36.762 285.1 0.4 212 21.8
2007-08-08 10:58:32 51°19.92 2°36.755 286.6 0.5 214 22.1
2007-08-08 10:59:32 51°19.913 2°36.747 286.3 0.6 229 22.1
2007-08-08 11:00:32 51°19.907 2°36.737 287.6 0.6 229 21.3
2007-08-08 11:01:32 51°19.901 2°36.727 290.3 0.4 236 21.2
2007-08-08 11:02:32 51°19.894 2°36.718 290.6 0.6 209 19.1
2007-08-08 11:03:32 51°19.886 2°36.71 283.1 0.5 215 21.2
2007-08-08 11:04:32 51°19.885 2°36.682 295.4 2.9 294 21.9
2007-08-08 11:05:32 51°19.943 2°36.659 25.8 3.4 20 21.4
2007-08-08 11:06:32 51°19.952 2°36.674 76.4 0.4 149 21.7
2007-08-08 11:07:32 51°19.945 2°36.674 104.7 0.5 198 -999
2007-08-08 11:08:32 51°19.936 2°36.669 117 0.6 208 21
2007-08-08 11:09:32 51°19.927 2°36.663 121.4 0.6 201 21
2007-08-08 11:10:32 51°19.919 2°36.657 121 0.5 189 19.6
2007-08-08 11:11:32 51°19.909 2°36.652 116.8 0.7 202 21.7
2007-08-08 11:12:32 51°19.9 2°36.649 108 0.7 168 21.7
2007-08-08 11:13:32 51°19.892 2°36.657 94.3 0.5 139 21.7
2007-08-08 11:14:32 51°19.885 2°36.673 80 1 105 21.2
2007-08-08 11:15:32 51°19.885 2°36.697 60.9 0.9 92 21.3
2007-08-08 11:16:32 51°19.885 2°36.714 54.7 0.6 92 21.1
2007-08-08 11:17:32 51°19.89 2°36.732 48.6 1 62 20.1
2007-08-08 11:18:32 51°19.898 2°36.756 46.8 1 57 21.6
2007-08-08 11:19:32 51°19.909 2°36.776 41.3 1 48 21.6
2007-08-08 11:20:32 51°19.921 2°36.795 41.7 1.1 41 20.7
2007-08-08 11:21:32 51°19.932 2°36.812 41 0.9 47 21.6
2007-08-08 11:22:32 51°19.945 2°36.83 39.7 1.1 39 21.3
2007-08-08 11:23:32 51°19.961 2°36.851 40.4 1.3 41 21.2
2007-08-08 11:24:32 51°19.978 2°36.875 40.7 1.4 38 21.8
2007-08-08 11:25:32 51°19.987 2°36.888 42.9 0.4 51 21.5
2007-08-08 11:26:32 51°19.985 2°36.889 46.6 0.5 196 21.8
2007-08-08 11:27:32 51°19.974 2°36.881 69.5 0.8 209 21.6
2007-08-08 11:28:32 51°19.965 2°36.867 91.6 0.9 222 21.6
2007-08-08 11:29:32 51°19.956 2°36.851 110.3 0.9 228 21
2007-08-08 11:30:32 51°19.948 2°36.836 123.5 0.8 229 21.1
2007-08-08 11:31:32 51°19.941 2°36.822 128.1 0.8 233 21.6
2007-08-08 11:32:32 51°19.934 2°36.806 128.9 0.7 243 21.8
2007-08-08 11:33:32 51°19.926 2°36.789 131 0.7 241 20.8
2007-08-08 11:34:32 51°19.918 2°36.773 132 0.7 230 21.3
2007-08-08 11:35:32 51°19.91 2°36.757 126.4 0.8 231 21.8
2007-08-08 11:36:32 51°19.902 2°36.742 123.8 0.7 225 21.3
2007-08-08 11:37:32 51°19.894 2°36.726 121 0.8 224 19.4
2007-08-08 11:38:32 51°19.884 2°36.713 116.3 0.7 217 20.7
2007-08-08 11:39:32 51°19.874 2°36.712 98.6 0.6 142 21.2
2007-08-08 11:40:32 51°19.871 2°36.734 70 1.6 64 21
2007-08-08 11:41:32 51°19.887 2°36.762 39.8 1.2 32 20.9
2007-08-08 11:42:32 51°19.909 2°36.777 25.3 1.7 14 21.6
2007-08-08 11:43:32 51°19.943 2°36.776 10.8 2.1 353 21
2007-08-08 11:44:32 51°19.971 2°36.785 36 1.1 31 21.7
2007-08-08 11:45:32 51°19.983 2°36.795 37.4 0.5 13 21.4
2007-08-08 11:46:32 51°19.987 2°36.795 31.5 0.5 18 21.2
2007-08-08 11:47:32 51°19.986 2°36.793 65.8 0.6 217 21.3
2007-08-08 11:48:32 51°19.975 2°36.779 92.1 1 221 21.6
2007-08-08 11:49:32 51°19.963 2°36.76 111.4 1 233 21.3
2007-08-08 11:50:32 51°19.953 2°36.74 120.9 0.9 232 20.8
2007-08-08 11:51:32 51°19.942 2°36.72 130.2 1 232 21.5
2007-08-08 11:52:32 51°19.932 2°36.7 133 1.1 232 4.4
2007-08-08 11:53:32 51°19.92 2°36.681 127.9 1 225 20.1
2007-08-08 11:54:32 51°19.909 2°36.663 124.4 0.9 228 21.1
2007-08-08 11:55:32 51°19.898 2°36.672 100.2 2.2 100 21.4
2007-08-08 11:56:32 51°19.923 2°36.714 24.7 2 5 20.9
2007-08-08 11:57:32 51°19.939 2°36.697 343.3 0.8 257 21.1
2007-08-08 11:58:33 51°19.931 2°36.677 315.4 1 234 -999
2007-08-08 11:59:32 51°19.92 2°36.657 294.3 1.3 228 19.5
2007-08-08 12:00:32 51°19.912 2°36.624 289.8 2.2 272 21.6
2007-08-08 12:01:32 51°19.938 2°36.561 345.2 3 328 21.1
2007-08-08 12:02:32 51°19.991 2°36.582 42 4.5 37 21.1
2007-08-08 12:03:32 51°20.039 2°36.664 56.3 2.7 57 21.8
2007-08-08 12:04:32 51°20.044 2°36.714 91.4 1.6 101 20.8
2007-08-08 12:05:32 51°20.027 2°36.745 125.6 1.7 155 19.1
2007-08-08 12:06:32 51°20 2°36.756 143.6 1.5 170 21.8
2007-08-08 12:07:32 51°19.979 2°36.757 132.1 1.1 185 21.4
2007-08-08 12:08:32 51°19.964 2°36.752 121.8 0.8 197 21
2007-08-08 12:09:32 51°19.95 2°36.742 116.8 1 216 20.6
2007-08-08 12:10:32 51°19.938 2°36.727 115.1 0.9 224 21.4
2007-08-08 12:11:32 51°19.926 2°36.709 113.9 0.9 224 21
2007-08-08 12:12:32 51°19.915 2°36.689 115.2 1.1 227 19.8
2007-08-08 12:13:32 51°19.903 2°36.666 114.5 1.1 234 21
2007-08-08 12:14:32 51°19.891 2°36.64 116.7 1.1 245 21.3
2007-08-08 12:15:32 51°19.88 2°36.612 120.8 1.2 234 19.5
2007-08-08 12:16:32 51°19.864 2°36.599 123.8 1.1 186 21.2
2007-08-08 12:17:32 51°19.846 2°36.602 114.7 1 166 21
2007-08-08 12:18:32 51°19.832 2°36.6 107.2 0.9 192 21.1
2007-08-08 12:19:32 51°19.82 2°36.593 100.1 0.8 212 21.2
2007-08-08 12:20:32 51°19.807 2°36.584 102.6 0.9 171 20.8
2007-08-08 12:21:32 51°19.779 2°36.607 145.1 2.8 166 18.7
2007-08-08 12:22:32 51°19.726 2°36.582 208.3 3.6 218 20.8
2007-08-08 12:23:32 51°19.699 2°36.536 242.7 1.9 233 20.3
2007-08-08 12:24:32 51°19.683 2°36.498 262 1.7 238 20.1
2007-08-08 12:25:32 51°19.671 2°36.463 273.8 1.5 242 20.7
2007-08-08 12:26:32 51°19.659 2°36.428 283.9 1.5 243 20.9
2007-08-08 12:27:32 51°19.648 2°36.395 289.6 1.4 237 20.4
2007-08-08 12:28:32 51°19.637 2°36.363 292.6 1.2 240 20.7
2007-08-08 12:29:32 51°19.623 2°36.335 292.2 1.2 230 20.3
2007-08-08 12:30:32 51°19.608 2°36.31 286.1 1.2 223 20.6
2007-08-08 12:31:32 51°19.593 2°36.287 280.1 1.1 229 21.1
2007-08-08 12:32:32 51°19.578 2°36.262 272.8 1.7 241 20.2
2007-08-08 12:33:32 51°19.551 2°36.198 230.9 3.9 227 20.8
2007-08-08 12:34:32 51°19.491 2°36.182 148.4 3.6 153 21.8
2007-08-08 12:35:32 51°19.464 2°36.265 98.8 5.1 105 22.4
2007-08-08 12:36:32 51°19.422 2°36.462 108.9 9.2 114 18.2
2007-08-08 12:37:32 51°19.348 2°36.702 115.1 10.5 119 19.9
2007-08-08 12:38:32 51°19.269 2°36.952 113.3 10.6 117 19.6
2007-08-08 12:39:32 51°19.193 2°37.207 112.8 10.6 114 19.8
2007-08-08 12:40:32 51°19.12 2°37.466 113 10.6 116 19.7
2007-08-08 12:41:32 51°19.048 2°37.725 113.6 10.6 114 19.9
2007-08-08 12:42:32 51°18.977 2°37.986 113.9 10.6 112 21.8
2007-08-08 12:43:32 51°18.907 2°38.246 113.5 10.7 113 25.2
2007-08-08 12:44:32 51°18.837 2°38.508 113.6 10.8 112 26
2007-08-08 12:45:32 51°18.766 2°38.768 114.3 10.7 112 25.9
2007-08-08 12:46:32 51°18.693 2°39.026 113.4 10.7 114 25.5
2007-08-08 12:47:32 51°18.619 2°39.283 113.2 10.5 116 24.7
2007-08-08 12:48:32 51°18.546 2°39.54 112.9 10.7 117 24.2
2007-08-08 12:49:32 51°18.474 2°39.797 113 10.5 112 24.3
2007-08-08 12:50:32 51°18.401 2°40.053 112.6 10.6 114 23.8
2007-08-08 12:51:32 51°18.329 2°40.304 114.8 10.3 116 13.4
2007-08-08 12:52:32 51°18.247 2°40.544 116.8 10.3 118 17.2
2007-08-08 12:53:32 51°18.166 2°40.787 116.1 10.4 120 16.6
2007-08-08 12:54:32 51°18.085 2°41.03 116.2 10.4 121 15.7
2007-08-08 12:55:32 51°18 2°41.272 116.3 10.5 120 20.9
2007-08-08 12:56:32 51°17.914 2°41.516 116.7 10.5 117 22.6
2007-08-08 12:57:32 51°17.827 2°41.758 116.6 10.6 120 23.2
2007-08-08 12:58:32 51°17.74 2°42.002 115.9 10.6 120 23.2
2007-08-08 12:59:32 51°17.652 2°42.246 115.4 10.7 119 22.9
2007-08-08 13:00:32 51°17.566 2°42.493 117 10.7 117 21.6
2007-08-08 13:01:32 51°17.478 2°42.74 115.8 10.6 120 14
2007-08-08 13:02:32 51°17.395 2°42.978 117.4 10 117 9.3
2007-08-08 13:03:32 51°17.311 2°43.214 116.6 10.1 119 10.8
2007-08-08 13:04:32 51°17.222 2°43.444 116.3 10.3 119 14.4
2007-08-08 13:05:32 51°17.131 2°43.682 115.5 10.6 122 13.2
2007-08-08 13:06:32 51°17.041 2°43.922 117.3 10.5 119 14
2007-08-08 13:07:32 51°16.95 2°44.163 116.1 10.6 119 15.1
2007-08-08 13:08:32 51°16.857 2°44.405 115.9 10.8 123 14.3
2007-08-08 13:09:32 51°16.767 2°44.651 116.8 10.8 120 12.7
2007-08-08 13:10:32 51°16.676 2°44.899 116.8 10.9 121 10.9
2007-08-08 13:11:32 51°16.586 2°45.147 115.8 10.8 119 10.6
2007-08-08 13:12:32 51°16.496 2°45.398 115.9 10.9 119 10.7
2007-08-08 13:13:32 51°16.406 2°45.648 115.9 10.9 122 9.8
2007-08-08 13:14:32 51°16.315 2°45.897 116.4 10.8 121 9.3
2007-08-08 13:15:32 51°16.225 2°46.147 115.2 10.8 119 9.6
2007-08-08 13:16:32 51°16.135 2°46.395 116.1 10.8 118 11.5
2007-08-08 13:17:32 51°16.044 2°46.642 116.8 10.8 123 13.1
2007-08-08 13:18:32 51°15.952 2°46.884 115.4 10.5 123 15.4
2007-08-08 13:19:32 51°15.873 2°47.132 109.9 10.5 116 15.6
2007-08-08 13:20:32 51°15.804 2°47.386 107.2 10.3 108 14.8
2007-08-08 13:21:32 51°15.749 2°47.644 106.8 10.2 107 13.7
2007-08-08 13:22:32 51°15.69 2°47.898 106.6 10.1 108 12.2
2007-08-08 13:23:32 51°15.633 2°48.153 105.8 10.1 108 10.7
2007-08-08 13:24:32 51°15.586 2°48.412 99.7 10.2 102 9.8
2007-08-08 13:25:32 51°15.548 2°48.677 99.4 10.2 102 9.7
2007-08-08 13:26:32 51°15.508 2°48.941 99.8 10.2 105 10.5
2007-08-08 13:27:32 51°15.474 2°49.206 95.8 10.1 99 12.1
2007-08-08 13:28:32 51°15.447 2°49.471 95.8 10.1 99 12.4
2007-08-08 13:29:32 51°15.42 2°49.737 95.7 10.1 97 12.2
2007-08-08 13:30:32 51°15.394 2°50.005 95.9 10.4 99 12.1
2007-08-08 13:31:32 51°15.365 2°50.274 96.9 10.2 99 11.9
2007-08-08 13:32:32 51°15.336 2°50.543 96.3 10.3 98 12.1
2007-08-08 13:33:32 51°15.304 2°50.809 96.3 10.3 107 12
2007-08-08 13:34:32 51°15.244 2°51.063 100.8 10.2 103 11.6
2007-08-08 13:35:32 51°15.227 2°51.33 91.1 10.1 94 11.4
2007-08-08 13:36:32 51°15.213 2°51.598 91.6 10.1 94 11.2
2007-08-08 13:37:32 51°15.199 2°51.867 95 10.2 100 11
2007-08-08 13:38:32 51°15.139 2°52.126 108.5 10.5 111 10.8
2007-08-08 13:39:32 51°15.08 2°52.388 106.2 10.5 111 10.3
2007-08-08 13:40:32 51°15.019 2°52.65 105.9 10.5 111 10
2007-08-08 13:41:32 51°14.959 2°52.913 105.9 10.5 109 10.2
2007-08-08 13:42:32 51°14.901 2°53.178 106 10.5 111 10.1
2007-08-08 13:43:32 51°14.843 2°53.443 106.6 10.6 108 9.9
2007-08-08 13:44:32 51°14.784 2°53.709 106 10.6 109 9.5
2007-08-08 13:45:32 51°14.72 2°53.973 108.9 11 111 9.9
2007-08-08 13:46:32 51°14.64 2°54.26 115.9 12.1 118 9.8
2007-08-08 13:47:32 51°14.548 2°54.546 115.9 12 120 10
2007-08-08 13:48:32 51°14.443 2°54.821 120.5 11.8 118 10.2
2007-08-08 13:49:32 51°14.343 2°55.096 119.7 12 118 9.8
2007-08-08 13:50:32 51°14.215 2°55.339 136.4 11.3 141 9.8
2007-08-08 13:51:32 51°14.086 2°55.442 158.5 6.9 156 9.4
2007-08-08 13:52:32 51°13.988 2°55.513 157.8 6.2 156 10.1
2007-08-08 13:53:32 51°13.873 2°55.597 156.9 8.5 155 10.2
2007-08-08 13:54:32 51°13.769 2°55.702 143.9 6.4 140 10.3
2007-08-08 13:55:32 51°13.699 2°55.815 132 5.7 128 10.1
2007-08-08 13:56:32 51°13.646 2°55.935 125.3 5 120 9.8
2007-08-08 13:57:32 51°13.619 2°56.03 113.3 3.2 110 9.7
2007-08-08 13:58:32 51°13.607 2°56.083 119.7 1.3 118 7.4
2007-08-08 13:59:32 51°13.601 2°56.096 112.6 0.5 136 5.4